sensor_id;sensor_type;location;lat;lon;timestamp;pressure;altitude;pressure_sealevel;temperature;humidity
47913;BME280;33676;51.006;17.180;2023-11-19T00:02:18;100706.70;;;3.60;99.95
47913;BME280;33676;51.006;17.180;2023-11-19T00:04:47;100712.03;;;3.56;99.99
47913;BME280;33676;51.006;17.180;2023-11-19T00:14:13;100692.94;;;3.41;99.80
47913;BME280;33676;51.006;17.180;2023-11-19T00:20:09;100677.18;;;3.34;99.90
47913;BME280;33676;51.006;17.180;2023-11-19T00:22:38;100669.71;;;3.31;99.89
47913;BME280;33676;51.006;17.180;2023-11-19T00:25:15;100659.85;;;3.27;99.73
47913;BME280;33676;51.006;17.180;2023-11-19T00:27:44;100666.73;;;3.24;99.81
47913;BME280;33676;51.006;17.180;2023-11-19T00:53:12;100607.11;;;3.28;98.48
47913;BME280;33676;51.006;17.180;2023-11-19T00:55:41;100588.67;;;3.23;98.43
47913;BME280;33676;51.006;17.180;2023-11-19T00:58:13;100586.75;;;3.15;98.65
47913;BME280;33676;51.006;17.180;2023-11-19T01:00:42;100587.06;;;3.09;98.90
47913;BME280;33676;51.006;17.180;2023-11-19T01:03:13;100588.38;;;3.02;98.89
47913;BME280;33676;51.006;17.180;2023-11-19T01:05:45;100581.71;;;2.96;99.17
47913;BME280;33676;51.006;17.180;2023-11-19T01:08:15;100574.17;;;2.90;99.14
47913;BME280;33676;51.006;17.180;2023-11-19T01:10:44;100562.27;;;2.83;99.23
47913;BME280;33676;51.006;17.180;2023-11-19T01:13:16;100558.39;;;2.76;99.19
47913;BME280;33676;51.006;17.180;2023-11-19T01:15:45;100550.67;;;2.71;99.17
47913;BME280;33676;51.006;17.180;2023-11-19T01:18:16;100545.47;;;2.67;99.23
47913;BME280;33676;51.006;17.180;2023-11-19T01:20:45;100534.75;;;2.63;99.42
47913;BME280;33676;51.006;17.180;2023-11-19T01:23:17;100528.70;;;2.59;99.59
47913;BME280;33676;51.006;17.180;2023-11-19T01:25:46;100525.56;;;2.56;99.61
47913;BME280;33676;51.006;17.180;2023-11-19T01:28:20;100513.30;;;2.52;99.42
47913;BME280;33676;51.006;17.180;2023-11-19T01:30:52;100495.70;;;2.48;99.67
47913;BME280;33676;51.006;17.180;2023-11-19T01:33:21;100481.77;;;2.43;99.62
47913;BME280;33676;51.006;17.180;2023-11-19T01:36:05;100482.77;;;2.40;99.60
47913;BME280;33676;51.006;17.180;2023-11-19T01:38:36;100488.27;;;2.36;99.63
47913;BME280;33676;51.006;17.180;2023-11-19T01:41:07;100488.08;;;2.31;99.75
47913;BME280;33676;51.006;17.180;2023-11-19T01:43:39;100478.23;;;2.28;99.77
47913;BME280;33676;51.006;17.180;2023-11-19T01:46:23;100465.27;;;2.24;99.75
47913;BME280;33676;51.006;17.180;2023-11-19T01:48:54;100457.24;;;2.22;99.92
47913;BME280;33676;51.006;17.180;2023-11-19T01:51:23;100468.88;;;2.20;99.86
47913;BME280;33676;51.006;17.180;2023-11-19T01:56:40;100470.63;;;2.15;100.00
47913;BME280;33676;51.006;17.180;2023-11-19T01:59:13;100464.31;;;2.14;99.98
47913;BME280;33676;51.006;17.180;2023-11-19T02:01:43;100460.71;;;2.14;100.00
47913;BME280;33676;51.006;17.180;2023-11-19T02:04:16;100454.89;;;2.12;100.00
47913;BME280;33676;51.006;17.180;2023-11-19T02:11:43;100423.30;;;2.10;100.00
47913;BME280;33676;51.006;17.180;2023-11-19T02:14:34;100423.05;;;2.07;100.00
47913;BME280;33676;51.006;17.180;2023-11-19T02:17:02;100433.94;;;2.07;100.00
47913;BME280;33676;51.006;17.180;2023-11-19T02:19:32;100427.39;;;2.07;100.00
47913;BME280;33676;51.006;17.180;2023-11-19T02:22:02;100427.07;;;2.06;100.00
47913;BME280;33676;51.006;17.180;2023-11-19T02:24:32;100418.65;;;2.05;100.00
47913;BME280;33676;51.006;17.180;2023-11-19T02:27:30;100414.31;;;2.06;100.00
47913;BME280;33676;51.006;17.180;2023-11-19T02:30:20;100412.50;;;2.08;100.00
47913;BME280;33676;51.006;17.180;2023-11-19T02:33:23;100407.80;;;2.09;100.00
47913;BME280;33676;51.006;17.180;2023-11-19T02:38:57;100404.59;;;2.11;100.00
47913;BME280;33676;51.006;17.180;2023-11-19T02:41:39;100398.89;;;2.12;100.00
47913;BME280;33676;51.006;17.180;2023-11-19T02:45:06;100396.05;;;2.14;100.00
47913;BME280;33676;51.006;17.180;2023-11-19T02:47:59;100392.22;;;2.15;100.00
47913;BME280;33676;51.006;17.180;2023-11-19T02:50:31;100387.19;;;2.15;100.00
47913;BME280;33676;51.006;17.180;2023-11-19T02:53:07;100387.21;;;2.15;100.00
47913;BME280;33676;51.006;17.180;2023-11-19T02:55:39;100392.55;;;2.15;100.00
47913;BME280;33676;51.006;17.180;2023-11-19T02:58:23;100398.77;;;2.14;100.00
47913;BME280;33676;51.006;17.180;2023-11-19T03:00:54;100399.46;;;2.14;100.00
47913;BME280;33676;51.006;17.180;2023-11-19T03:03:59;100385.44;;;2.16;100.00
47913;BME280;33676;51.006;17.180;2023-11-19T03:06:35;100379.83;;;2.18;100.00
47913;BME280;33676;51.006;17.180;2023-11-19T03:12:15;100360.61;;;2.20;100.00
47913;BME280;33676;51.006;17.180;2023-11-19T03:14:47;100342.69;;;2.20;100.00
47913;BME280;33676;51.006;17.180;2023-11-19T03:17:19;100339.39;;;2.20;100.00
47913;BME280;33676;51.006;17.180;2023-11-19T03:19:48;100333.98;;;2.21;100.00
47913;BME280;33676;51.006;17.180;2023-11-19T03:22:16;100330.14;;;2.23;100.00
47913;BME280;33676;51.006;17.180;2023-11-19T03:31:51;100314.33;;;2.21;100.00
47913;BME280;33676;51.006;17.180;2023-11-19T03:34:19;100312.42;;;2.21;100.00
47913;BME280;33676;51.006;17.180;2023-11-19T03:36:50;100314.24;;;2.23;100.00
47913;BME280;33676;51.006;17.180;2023-11-19T03:39:18;100304.75;;;2.24;100.00
47913;BME280;33676;51.006;17.180;2023-11-19T03:42:19;100310.15;;;2.22;100.00
47913;BME280;33676;51.006;17.180;2023-11-19T03:44:49;100311.48;;;2.24;100.00
47913;BME280;33676;51.006;17.180;2023-11-19T03:47:19;100303.95;;;2.22;100.00
47913;BME280;33676;51.006;17.180;2023-11-19T03:49:53;100287.18;;;2.23;100.00
47913;BME280;33676;51.006;17.180;2023-11-19T03:52:23;100280.11;;;2.23;100.00
47913;BME280;33676;51.006;17.180;2023-11-19T03:54:57;100271.52;;;2.22;100.00
47913;BME280;33676;51.006;17.180;2023-11-19T03:57:30;100271.70;;;2.22;100.00
47913;BME280;33676;51.006;17.180;2023-11-19T04:00:08;100264.45;;;2.22;100.00
47913;BME280;33676;51.006;17.180;2023-11-19T04:02:42;100257.54;;;2.22;100.00
47913;BME280;33676;51.006;17.180;2023-11-19T04:05:12;100240.36;;;2.21;100.00
47913;BME280;33676;51.006;17.180;2023-11-19T04:07:41;100236.69;;;2.22;100.00
47913;BME280;33676;51.006;17.180;2023-11-19T04:10:11;100237.17;;;2.23;100.00
47913;BME280;33676;51.006;17.180;2023-11-19T04:19:40;100225.73;;;2.28;100.00
47913;BME280;33676;51.006;17.180;2023-11-19T04:22:42;100220.05;;;2.32;100.00
47913;BME280;33676;51.006;17.180;2023-11-19T04:25:15;100201.97;;;2.31;100.00
47913;BME280;33676;51.006;17.180;2023-11-19T04:27:46;100181.33;;;2.34;100.00
47913;BME280;33676;51.006;17.180;2023-11-19T04:30:19;100172.83;;;2.35;100.00
47913;BME280;33676;51.006;17.180;2023-11-19T04:32:48;100167.30;;;2.35;100.00
47913;BME280;33676;51.006;17.180;2023-11-19T04:35:18;100160.88;;;2.36;100.00
47913;BME280;33676;51.006;17.180;2023-11-19T04:37:48;100149.61;;;2.37;100.00
47913;BME280;33676;51.006;17.180;2023-11-19T04:40:17;100137.54;;;2.37;100.00
47913;BME280;33676;51.006;17.180;2023-11-19T04:42:54;100132.81;;;2.39;100.00
47913;BME280;33676;51.006;17.180;2023-11-19T04:45:39;100130.77;;;2.38;100.00
47913;BME280;33676;51.006;17.180;2023-11-19T04:48:08;100125.23;;;2.38;100.00
47913;BME280;33676;51.006;17.180;2023-11-19T04:50:37;100125.08;;;2.38;100.00
47913;BME280;33676;51.006;17.180;2023-11-19T04:53:24;100130.23;;;2.39;100.00
47913;BME280;33676;51.006;17.180;2023-11-19T04:55:53;100129.28;;;2.40;100.00
47913;BME280;33676;51.006;17.180;2023-11-19T04:58:28;100123.91;;;2.41;100.00
47913;BME280;33676;51.006;17.180;2023-11-19T05:04:07;100129.11;;;2.44;100.00
47913;BME280;33676;51.006;17.180;2023-11-19T05:07:23;100125.69;;;2.47;100.00
47913;BME280;33676;51.006;17.180;2023-11-19T05:09:52;100120.60;;;2.49;100.00
47913;BME280;33676;51.006;17.180;2023-11-19T05:12:34;100114.13;;;2.51;100.00
47913;BME280;33676;51.006;17.180;2023-11-19T05:15:06;100111.43;;;2.53;100.00
47913;BME280;33676;51.006;17.180;2023-11-19T05:20:36;100100.81;;;2.55;100.00
47913;BME280;33676;51.006;17.180;2023-11-19T05:23:32;100095.42;;;2.56;100.00
47913;BME280;33676;51.006;17.180;2023-11-19T05:29:10;100062.31;;;2.59;100.00
47913;BME280;33676;51.006;17.180;2023-11-19T05:32:10;100050.16;;;2.60;100.00
47913;BME280;33676;51.006;17.180;2023-11-19T05:35:26;100048.64;;;2.60;100.00
47913;BME280;33676;51.006;17.180;2023-11-19T05:38:12;100036.23;;;2.59;100.00
47913;BME280;33676;51.006;17.180;2023-11-19T05:44:22;100047.10;;;2.62;100.00
47913;BME280;33676;51.006;17.180;2023-11-19T05:47:08;100047.98;;;2.65;100.00
47913;BME280;33676;51.006;17.180;2023-11-19T05:49:39;100049.61;;;2.68;100.00
47913;BME280;33676;51.006;17.180;2023-11-19T05:52:38;100051.64;;;2.72;100.00
47913;BME280;33676;51.006;17.180;2023-11-19T05:55:28;100045.55;;;2.73;100.00
47913;BME280;33676;51.006;17.180;2023-11-19T05:57:57;100037.80;;;2.76;100.00
47913;BME280;33676;51.006;17.180;2023-11-19T06:00:52;100028.02;;;2.78;100.00
47913;BME280;33676;51.006;17.180;2023-11-19T06:03:25;100022.55;;;2.81;100.00
47913;BME280;33676;51.006;17.180;2023-11-19T06:06:27;100014.20;;;2.82;100.00
47913;BME280;33676;51.006;17.180;2023-11-19T06:12:33;100011.06;;;2.86;100.00
47913;BME280;33676;51.006;17.180;2023-11-19T06:15:09;100009.42;;;2.88;100.00
47913;BME280;33676;51.006;17.180;2023-11-19T06:18:14;100007.75;;;2.90;100.00
47913;BME280;33676;51.006;17.180;2023-11-19T06:20:43;100010.80;;;2.91;100.00
47913;BME280;33676;51.006;17.180;2023-11-19T06:23:33;100009.48;;;2.93;100.00
47913;BME280;33676;51.006;17.180;2023-11-19T06:26:06;100006.79;;;2.96;100.00
47913;BME280;33676;51.006;17.180;2023-11-19T06:28:34;100018.26;;;2.98;100.00
47913;BME280;33676;51.006;17.180;2023-11-19T06:31:08;100010.35;;;3.00;100.00
47913;BME280;33676;51.006;17.180;2023-11-19T06:33:37;99992.27;;;3.03;100.00
47913;BME280;33676;51.006;17.180;2023-11-19T06:36:06;99991.84;;;3.05;100.00
47913;BME280;33676;51.006;17.180;2023-11-19T06:38:35;99994.42;;;3.08;100.00
47913;BME280;33676;51.006;17.180;2023-11-19T06:41:08;99985.44;;;3.11;100.00
47913;BME280;33676;51.006;17.180;2023-11-19T06:43:37;99976.96;;;3.14;100.00
47913;BME280;33676;51.006;17.180;2023-11-19T06:46:46;99972.77;;;3.19;100.00
47913;BME280;33676;51.006;17.180;2023-11-19T06:49:14;99959.98;;;3.22;100.00
47913;BME280;33676;51.006;17.180;2023-11-19T06:51:43;99965.69;;;3.25;100.00
47913;BME280;33676;51.006;17.180;2023-11-19T06:54:12;99960.50;;;3.28;100.00
47913;BME280;33676;51.006;17.180;2023-11-19T06:56:42;99956.55;;;3.31;100.00
47913;BME280;33676;51.006;17.180;2023-11-19T07:10:26;99930.31;;;3.84;100.00
47913;BME280;33676;51.006;17.180;2023-11-19T07:12:56;99921.81;;;3.94;100.00
47913;BME280;33676;51.006;17.180;2023-11-19T07:15:26;99922.10;;;3.92;100.00
47913;BME280;33676;51.006;17.180;2023-11-19T07:17:54;99915.94;;;3.91;100.00
47913;BME280;33676;51.006;17.180;2023-11-19T07:20:26;99910.02;;;3.91;100.00
47913;BME280;33676;51.006;17.180;2023-11-19T07:22:57;99899.12;;;3.91;100.00
47913;BME280;33676;51.006;17.180;2023-11-19T07:25:25;99887.30;;;3.92;100.00
47913;BME280;33676;51.006;17.180;2023-11-19T07:27:55;99890.81;;;3.95;100.00
47913;BME280;33676;51.006;17.180;2023-11-19T07:30:25;99894.14;;;3.97;100.00
47913;BME280;33676;51.006;17.180;2023-11-19T07:32:54;99900.46;;;3.98;100.00
47913;BME280;33676;51.006;17.180;2023-11-19T07:35:40;99901.06;;;4.00;100.00
47913;BME280;33676;51.006;17.180;2023-11-19T07:38:14;99890.16;;;4.00;100.00
47913;BME280;33676;51.006;17.180;2023-11-19T07:40:43;99888.41;;;4.01;100.00
47913;BME280;33676;51.006;17.180;2023-11-19T07:43:19;99887.00;;;4.01;100.00
47913;BME280;33676;51.006;17.180;2023-11-19T07:45:50;99889.20;;;4.02;100.00
47913;BME280;33676;51.006;17.180;2023-11-19T07:48:19;99884.70;;;4.05;100.00
47913;BME280;33676;51.006;17.180;2023-11-19T07:50:52;99878.50;;;4.08;100.00
47913;BME280;33676;51.006;17.180;2023-11-19T07:53:21;99871.21;;;4.11;100.00
47913;BME280;33676;51.006;17.180;2023-11-19T07:55:50;99865.77;;;4.15;100.00
47913;BME280;33676;51.006;17.180;2023-11-19T07:58:25;99867.03;;;4.17;100.00
47913;BME280;33676;51.006;17.180;2023-11-19T08:00:56;99866.70;;;4.17;100.00
47913;BME280;33676;51.006;17.180;2023-11-19T08:03:25;99864.42;;;4.17;100.00
47913;BME280;33676;51.006;17.180;2023-11-19T08:05:56;99868.39;;;4.18;100.00
47913;BME280;33676;51.006;17.180;2023-11-19T08:08:25;99862.76;;;4.19;100.00
47913;BME280;33676;51.006;17.180;2023-11-19T08:10:55;99861.54;;;4.22;100.00
47913;BME280;33676;51.006;17.180;2023-11-19T08:13:24;99856.67;;;4.25;100.00
47913;BME280;33676;51.006;17.180;2023-11-19T08:15:53;99846.14;;;4.25;100.00
47913;BME280;33676;51.006;17.180;2023-11-19T08:18:22;99834.27;;;4.24;100.00
47913;BME280;33676;51.006;17.180;2023-11-19T08:20:50;99829.53;;;4.22;100.00
47913;BME280;33676;51.006;17.180;2023-11-19T08:23:21;99824.73;;;4.21;100.00
47913;BME280;33676;51.006;17.180;2023-11-19T08:25:51;99823.73;;;4.21;100.00
47913;BME280;33676;51.006;17.180;2023-11-19T08:28:21;99823.09;;;4.20;100.00
47913;BME280;33676;51.006;17.180;2023-11-19T08:30:49;99819.06;;;4.18;100.00
47913;BME280;33676;51.006;17.180;2023-11-19T08:33:18;99817.13;;;4.16;100.00
47913;BME280;33676;51.006;17.180;2023-11-19T08:35:47;99811.38;;;4.14;100.00
47913;BME280;33676;51.006;17.180;2023-11-19T08:38:15;99809.15;;;4.14;100.00
47913;BME280;33676;51.006;17.180;2023-11-19T08:41:00;99804.51;;;4.13;100.00
47913;BME280;33676;51.006;17.180;2023-11-19T08:43:29;99797.52;;;4.11;100.00
47913;BME280;33676;51.006;17.180;2023-11-19T08:46:00;99786.04;;;4.10;100.00
47913;BME280;33676;51.006;17.180;2023-11-19T08:48:28;99781.11;;;4.08;100.00
47913;BME280;33676;51.006;17.180;2023-11-19T08:50:57;99777.79;;;4.06;100.00
47913;BME280;33676;51.006;17.180;2023-11-19T08:53:28;99768.56;;;4.04;100.00
47913;BME280;33676;51.006;17.180;2023-11-19T08:55:57;99765.38;;;4.02;100.00
47913;BME280;33676;51.006;17.180;2023-11-19T08:58:26;99747.69;;;4.00;100.00
47913;BME280;33676;51.006;17.180;2023-11-19T09:00:58;99737.40;;;3.98;100.00
47913;BME280;33676;51.006;17.180;2023-11-19T09:03:31;99723.43;;;3.98;100.00
47913;BME280;33676;51.006;17.180;2023-11-19T09:06:00;99721.10;;;3.96;100.00
47913;BME280;33676;51.006;17.180;2023-11-19T09:08:30;99724.73;;;3.96;100.00
47913;BME280;33676;51.006;17.180;2023-11-19T09:10:58;99722.56;;;3.97;100.00
47913;BME280;33676;51.006;17.180;2023-11-19T09:13:27;99719.61;;;4.01;100.00
47913;BME280;33676;51.006;17.180;2023-11-19T09:15:55;99712.27;;;4.03;100.00
47913;BME280;33676;51.006;17.180;2023-11-19T09:18:27;99709.75;;;4.04;100.00
47913;BME280;33676;51.006;17.180;2023-11-19T09:20:56;99709.25;;;4.07;100.00
47913;BME280;33676;51.006;17.180;2023-11-19T09:23:24;99704.45;;;4.09;100.00
47913;BME280;33676;51.006;17.180;2023-11-19T09:25:53;99697.38;;;4.11;100.00
47913;BME280;33676;51.006;17.180;2023-11-19T09:28:22;99692.73;;;4.16;100.00
47913;BME280;33676;51.006;17.180;2023-11-19T09:30:50;99686.90;;;4.21;100.00
47913;BME280;33676;51.006;17.180;2023-11-19T09:33:19;99680.15;;;4.26;100.00
47913;BME280;33676;51.006;17.180;2023-11-19T09:35:51;99680.03;;;4.31;100.00
47913;BME280;33676;51.006;17.180;2023-11-19T09:38:22;99683.34;;;4.34;100.00
47913;BME280;33676;51.006;17.180;2023-11-19T09:40:50;99688.92;;;4.39;100.00
47913;BME280;33676;51.006;17.180;2023-11-19T09:43:18;99688.97;;;4.43;100.00
47913;BME280;33676;51.006;17.180;2023-11-19T09:45:49;99682.05;;;4.52;100.00
47913;BME280;33676;51.006;17.180;2023-11-19T09:48:19;99678.46;;;4.59;100.00
47913;BME280;33676;51.006;17.180;2023-11-19T09:50:48;99676.85;;;4.66;100.00
47913;BME280;33676;51.006;17.180;2023-11-19T09:53:17;99678.13;;;4.73;100.00
47913;BME280;33676;51.006;17.180;2023-11-19T09:55:46;99669.36;;;4.77;100.00
47913;BME280;33676;51.006;17.180;2023-11-19T09:58:15;99665.27;;;4.81;100.00
47913;BME280;33676;51.006;17.180;2023-11-19T10:00:43;99655.29;;;4.86;100.00
47913;BME280;33676;51.006;17.180;2023-11-19T10:03:21;99651.23;;;4.89;100.00
47913;BME280;33676;51.006;17.180;2023-11-19T10:05:51;99642.37;;;4.93;100.00
47913;BME280;33676;51.006;17.180;2023-11-19T10:08:20;99635.16;;;4.94;100.00
47913;BME280;33676;51.006;17.180;2023-11-19T10:10:49;99630.58;;;4.95;100.00
47913;BME280;33676;51.006;17.180;2023-11-19T10:13:17;99626.98;;;4.97;100.00
47913;BME280;33676;51.006;17.180;2023-11-19T10:15:47;99618.66;;;5.00;100.00
47913;BME280;33676;51.006;17.180;2023-11-19T10:18:16;99618.51;;;5.03;100.00
47913;BME280;33676;51.006;17.180;2023-11-19T10:20:45;99617.23;;;5.04;100.00
47913;BME280;33676;51.006;17.180;2023-11-19T10:23:13;99605.38;;;5.08;100.00
47913;BME280;33676;51.006;17.180;2023-11-19T10:25:42;99591.52;;;5.15;100.00
47913;BME280;33676;51.006;17.180;2023-11-19T10:28:11;99583.83;;;5.24;100.00
47913;BME280;33676;51.006;17.180;2023-11-19T10:30:41;99574.33;;;5.33;100.00
47913;BME280;33676;51.006;17.180;2023-11-19T10:33:14;99568.27;;;5.44;100.00
47913;BME280;33676;51.006;17.180;2023-11-19T10:35:58;99556.90;;;5.55;100.00
47913;BME280;33676;51.006;17.180;2023-11-19T10:38:30;99560.74;;;5.65;100.00
47913;BME280;33676;51.006;17.180;2023-11-19T10:40:59;99553.11;;;5.70;100.00
47913;BME280;33676;51.006;17.180;2023-11-19T10:43:27;99547.17;;;5.73;100.00
47913;BME280;33676;51.006;17.180;2023-11-19T10:46:11;99537.40;;;5.71;100.00
47913;BME280;33676;51.006;17.180;2023-11-19T10:48:40;99532.76;;;5.73;100.00
47913;BME280;33676;51.006;17.180;2023-11-19T10:51:09;99523.96;;;5.72;100.00
47913;BME280;33676;51.006;17.180;2023-11-19T10:53:38;99524.35;;;5.70;100.00
47913;BME280;33676;51.006;17.180;2023-11-19T10:56:11;99521.27;;;5.69;100.00
47913;BME280;33676;51.006;17.180;2023-11-19T10:58:44;99518.63;;;5.67;100.00
47913;BME280;33676;51.006;17.180;2023-11-19T11:01:20;99522.90;;;5.65;100.00
47913;BME280;33676;51.006;17.180;2023-11-19T11:03:52;99531.80;;;5.65;100.00
47913;BME280;33676;51.006;17.180;2023-11-19T11:06:23;99519.27;;;5.63;100.00
47913;BME280;33676;51.006;17.180;2023-11-19T11:08:51;99521.75;;;5.62;100.00
47913;BME280;33676;51.006;17.180;2023-11-19T11:11:20;99521.82;;;5.61;100.00
47913;BME280;33676;51.006;17.180;2023-11-19T11:13:54;99514.55;;;5.63;100.00
47913;BME280;33676;51.006;17.180;2023-11-19T11:16:25;99515.48;;;5.65;100.00
47913;BME280;33676;51.006;17.180;2023-11-19T11:18:54;99513.80;;;5.67;100.00
47913;BME280;33676;51.006;17.180;2023-11-19T11:21:25;99506.65;;;5.68;100.00
47913;BME280;33676;51.006;17.180;2023-11-19T11:24:54;99497.20;;;5.69;100.00
47913;BME280;33676;51.006;17.180;2023-11-19T11:37:18;99474.41;;;5.62;100.00
47913;BME280;33676;51.006;17.180;2023-11-19T11:39:47;99461.23;;;5.60;100.00
47913;BME280;33676;51.006;17.180;2023-11-19T11:42:32;99456.70;;;5.58;100.00
47913;BME280;33676;51.006;17.180;2023-11-19T11:45:09;99457.45;;;5.57;100.00
47913;BME280;33676;51.006;17.180;2023-11-19T11:50:19;99458.03;;;5.56;100.00
47913;BME280;33676;51.006;17.180;2023-11-19T11:53:13;99449.20;;;5.61;100.00
47913;BME280;33676;51.006;17.180;2023-11-19T11:58:29;99456.40;;;5.67;100.00
47913;BME280;33676;51.006;17.180;2023-11-19T12:01:03;99458.95;;;5.75;100.00
47913;BME280;33676;51.006;17.180;2023-11-19T12:03:35;99459.47;;;5.82;100.00
47913;BME280;33676;51.006;17.180;2023-11-19T12:06:06;99452.33;;;5.90;100.00
47913;BME280;33676;51.006;17.180;2023-11-19T12:08:38;99451.83;;;5.97;100.00
47913;BME280;33676;51.006;17.180;2023-11-19T12:11:10;99444.13;;;6.03;100.00
47913;BME280;33676;51.006;17.180;2023-11-19T12:13:53;99440.52;;;6.10;100.00
47913;BME280;33676;51.006;17.180;2023-11-19T12:16:24;99434.42;;;6.17;100.00
47913;BME280;33676;51.006;17.180;2023-11-19T12:18:52;99428.73;;;6.21;100.00
47913;BME280;33676;51.006;17.180;2023-11-19T12:21:29;99428.26;;;6.27;100.00
47913;BME280;33676;51.006;17.180;2023-11-19T12:23:59;99422.96;;;6.35;100.00
47913;BME280;33676;51.006;17.180;2023-11-19T12:26:38;99420.59;;;6.41;100.00
47913;BME280;33676;51.006;17.180;2023-11-19T12:30:24;99413.81;;;6.51;100.00
47913;BME280;33676;51.006;17.180;2023-11-19T12:32:53;99408.59;;;6.56;100.00
47913;BME280;33676;51.006;17.180;2023-11-19T12:35:20;99406.75;;;6.59;100.00
47913;BME280;33676;51.006;17.180;2023-11-19T12:37:50;99407.56;;;6.65;100.00
47913;BME280;33676;51.006;17.180;2023-11-19T12:40:23;99405.92;;;6.69;100.00
47913;BME280;33676;51.006;17.180;2023-11-19T12:42:57;99401.47;;;6.72;100.00
47913;BME280;33676;51.006;17.180;2023-11-19T12:45:24;99399.82;;;6.75;100.00
47913;BME280;33676;51.006;17.180;2023-11-19T12:48:06;99399.45;;;6.79;100.00
47913;BME280;33676;51.006;17.180;2023-11-19T12:50:55;99399.82;;;6.82;100.00
47913;BME280;33676;51.006;17.180;2023-11-19T12:53:27;99397.71;;;6.84;100.00
47913;BME280;33676;51.006;17.180;2023-11-19T12:55:55;99392.17;;;6.89;100.00
47913;BME280;33676;51.006;17.180;2023-11-19T12:58:33;99397.33;;;6.92;100.00
47913;BME280;33676;51.006;17.180;2023-11-19T13:01:08;99388.60;;;6.96;100.00
47913;BME280;33676;51.006;17.180;2023-11-19T13:03:37;99383.73;;;7.01;100.00
47913;BME280;33676;51.006;17.180;2023-11-19T13:06:11;99379.82;;;7.05;100.00
47913;BME280;33676;51.006;17.180;2023-11-19T13:08:45;99375.39;;;7.08;100.00
47913;BME280;33676;51.006;17.180;2023-11-19T13:11:13;99373.70;;;7.14;100.00
47913;BME280;33676;51.006;17.180;2023-11-19T13:14:04;99366.52;;;7.21;100.00
47913;BME280;33676;51.006;17.180;2023-11-19T13:16:32;99363.42;;;7.34;100.00
47913;BME280;33676;51.006;17.180;2023-11-19T13:19:00;99360.17;;;7.44;100.00
47913;BME280;33676;51.006;17.180;2023-11-19T13:21:27;99354.83;;;7.52;100.00
47913;BME280;33676;51.006;17.180;2023-11-19T13:23:54;99354.41;;;7.59;100.00
47913;BME280;33676;51.006;17.180;2023-11-19T13:26:22;99355.75;;;7.69;100.00
47913;BME280;33676;51.006;17.180;2023-11-19T13:28:49;99350.67;;;7.78;100.00
47913;BME280;33676;51.006;17.180;2023-11-19T13:31:16;99350.73;;;7.89;100.00
47913;BME280;33676;51.006;17.180;2023-11-19T13:33:44;99353.63;;;8.01;100.00
47913;BME280;33676;51.006;17.180;2023-11-19T13:36:11;99348.88;;;8.10;100.00
47913;BME280;33676;51.006;17.180;2023-11-19T13:38:44;99346.39;;;8.19;100.00
47913;BME280;33676;51.006;17.180;2023-11-19T13:41:12;99340.08;;;8.30;100.00
47913;BME280;33676;51.006;17.180;2023-11-19T13:43:40;99338.03;;;8.44;100.00
47913;BME280;33676;51.006;17.180;2023-11-19T13:46:08;99336.67;;;8.66;100.00
47913;BME280;33676;51.006;17.180;2023-11-19T13:48:39;99332.14;;;8.90;100.00
47913;BME280;33676;51.006;17.180;2023-11-19T13:51:06;99331.74;;;9.11;100.00
47913;BME280;33676;51.006;17.180;2023-11-19T13:53:33;99334.08;;;9.26;100.00
47913;BME280;33676;51.006;17.180;2023-11-19T13:56:18;99336.59;;;9.41;100.00
47913;BME280;33676;51.006;17.180;2023-11-19T13:58:45;99341.58;;;9.59;100.00
47913;BME280;33676;51.006;17.180;2023-11-19T14:01:13;99340.25;;;9.80;100.00
47913;BME280;33676;51.006;17.180;2023-11-19T14:03:41;99342.48;;;10.03;100.00
47913;BME280;33676;51.006;17.180;2023-11-19T14:06:08;99342.20;;;10.26;100.00
47913;BME280;33676;51.006;17.180;2023-11-19T14:08:36;99345.58;;;10.42;100.00
47913;BME280;33676;51.006;17.180;2023-11-19T14:11:03;99345.64;;;10.53;100.00
47913;BME280;33676;51.006;17.180;2023-11-19T14:13:32;99350.13;;;10.59;100.00
47913;BME280;33676;51.006;17.180;2023-11-19T14:15:59;99350.46;;;10.65;100.00
47913;BME280;33676;51.006;17.180;2023-11-19T14:18:27;99347.31;;;10.69;100.00
47913;BME280;33676;51.006;17.180;2023-11-19T14:20:54;99353.66;;;10.68;100.00
47913;BME280;33676;51.006;17.180;2023-11-19T14:23:21;99355.20;;;10.61;100.00
47913;BME280;33676;51.006;17.180;2023-11-19T14:25:48;99355.30;;;10.52;100.00
47913;BME280;33676;51.006;17.180;2023-11-19T14:28:16;99353.05;;;10.45;100.00
47913;BME280;33676;51.006;17.180;2023-11-19T14:30:43;99350.52;;;10.36;100.00
47913;BME280;33676;51.006;17.180;2023-11-19T14:33:12;99345.02;;;10.26;100.00
47913;BME280;33676;51.006;17.180;2023-11-19T14:35:39;99342.05;;;10.16;100.00
47913;BME280;33676;51.006;17.180;2023-11-19T14:38:06;99347.21;;;10.05;100.00
47913;BME280;33676;51.006;17.180;2023-11-19T14:40:36;99349.44;;;9.96;100.00
47913;BME280;33676;51.006;17.180;2023-11-19T14:43:06;99347.91;;;9.86;100.00
47913;BME280;33676;51.006;17.180;2023-11-19T14:45:37;99345.13;;;9.76;100.00
47913;BME280;33676;51.006;17.180;2023-11-19T14:48:14;99346.55;;;9.66;100.00
47913;BME280;33676;51.006;17.180;2023-11-19T14:50:41;99347.50;;;9.55;100.00
47913;BME280;33676;51.006;17.180;2023-11-19T14:53:08;99348.88;;;9.44;100.00
47913;BME280;33676;51.006;17.180;2023-11-19T14:55:36;99350.60;;;9.37;100.00
47913;BME280;33676;51.006;17.180;2023-11-19T14:58:03;99350.61;;;9.30;100.00
47913;BME280;33676;51.006;17.180;2023-11-19T15:00:41;99347.84;;;9.22;100.00
47913;BME280;33676;51.006;17.180;2023-11-19T15:03:08;99342.24;;;9.12;100.00
47913;BME280;33676;51.006;17.180;2023-11-19T15:05:36;99337.81;;;9.03;100.00